sensor_id;sensor_type;location;lat;lon;timestamp;P1;durP1;ratioP1;P2;durP2;ratioP2
23129;SDS011;11734;51.046;13.778;2023-06-10T00:02:07;8.07;;;7.27;;
23129;SDS011;11734;51.046;13.778;2023-06-10T00:04:34;7.93;;;7.23;;
23129;SDS011;11734;51.046;13.778;2023-06-10T00:07:03;8.03;;;7.23;;
23129;SDS011;11734;51.046;13.778;2023-06-10T00:09:35;8.43;;;7.20;;
23129;SDS011;11734;51.046;13.778;2023-06-10T00:12:03;8.23;;;7.43;;
23129;SDS011;11734;51.046;13.778;2023-06-10T00:14:31;8.53;;;7.60;;
23129;SDS011;11734;51.046;13.778;2023-06-10T00:16:58;8.00;;;7.20;;
23129;SDS011;11734;51.046;13.778;2023-06-10T00:19:26;8.80;;;7.90;;
23129;SDS011;11734;51.046;13.778;2023-06-10T00:21:56;8.10;;;7.17;;
23129;SDS011;11734;51.046;13.778;2023-06-10T00:24:24;7.70;;;6.90;;
23129;SDS011;11734;51.046;13.778;2023-06-10T00:26:51;7.97;;;7.17;;
23129;SDS011;11734;51.046;13.778;2023-06-10T00:29:19;7.70;;;6.97;;
23129;SDS011;11734;51.046;13.778;2023-06-10T00:31:46;8.67;;;7.13;;
23129;SDS011;11734;51.046;13.778;2023-06-10T00:34:14;9.10;;;6.77;;
23129;SDS011;11734;51.046;13.778;2023-06-10T00:36:43;8.03;;;7.23;;
23129;SDS011;11734;51.046;13.778;2023-06-10T00:39:11;8.53;;;7.37;;
23129;SDS011;11734;51.046;13.778;2023-06-10T00:41:38;7.03;;;6.33;;
23129;SDS011;11734;51.046;13.778;2023-06-10T00:44:06;7.27;;;6.57;;
23129;SDS011;11734;51.046;13.778;2023-06-10T00:46:34;7.47;;;6.77;;
23129;SDS011;11734;51.046;13.778;2023-06-10T00:49:03;7.00;;;6.30;;
23129;SDS011;11734;51.046;13.778;2023-06-10T00:51:31;6.63;;;6.00;;
23129;SDS011;11734;51.046;13.778;2023-06-10T00:53:58;6.97;;;6.30;;
23129;SDS011;11734;51.046;13.778;2023-06-10T00:56:26;7.80;;;6.83;;
23129;SDS011;11734;51.046;13.778;2023-06-10T00:58:54;6.57;;;5.97;;
23129;SDS011;11734;51.046;13.778;2023-06-10T01:01:22;6.20;;;5.60;;
23129;SDS011;11734;51.046;13.778;2023-06-10T01:03:50;8.97;;;5.83;;
23129;SDS011;11734;51.046;13.778;2023-06-10T01:11:17;6.40;;;5.80;;
23129;SDS011;11734;51.046;13.778;2023-06-10T01:13:47;6.27;;;5.67;;
23129;SDS011;11734;51.046;13.778;2023-06-10T01:16:18;6.73;;;6.03;;
23129;SDS011;11734;51.046;13.778;2023-06-10T01:18:46;6.70;;;6.00;;
23129;SDS011;11734;51.046;13.778;2023-06-10T01:21:23;8.80;;;5.83;;
23129;SDS011;11734;51.046;13.778;2023-06-10T01:23:52;6.97;;;6.27;;
23129;SDS011;11734;51.046;13.778;2023-06-10T01:26:20;7.03;;;6.30;;
23129;SDS011;11734;51.046;13.778;2023-06-10T01:29:01;6.53;;;5.93;;
23129;SDS011;11734;51.046;13.778;2023-06-10T01:34:03;6.73;;;6.00;;
23129;SDS011;11734;51.046;13.778;2023-06-10T01:36:34;7.07;;;6.33;;
23129;SDS011;11734;51.046;13.778;2023-06-10T01:39:03;7.30;;;6.50;;
23129;SDS011;11734;51.046;13.778;2023-06-10T01:41:33;7.47;;;6.73;;
23129;SDS011;11734;51.046;13.778;2023-06-10T01:44:02;7.30;;;6.60;;
23129;SDS011;11734;51.046;13.778;2023-06-10T01:46:30;7.53;;;6.83;;
23129;SDS011;11734;51.046;13.778;2023-06-10T01:48:57;8.00;;;7.17;;
23129;SDS011;11734;51.046;13.778;2023-06-10T01:51:24;8.87;;;7.17;;
23129;SDS011;11734;51.046;13.778;2023-06-10T01:53:52;8.30;;;7.50;;
23129;SDS011;11734;51.046;13.778;2023-06-10T01:56:19;8.70;;;7.80;;
23129;SDS011;11734;51.046;13.778;2023-06-10T01:58:47;8.10;;;7.30;;
23129;SDS011;11734;51.046;13.778;2023-06-10T02:01:15;9.10;;;7.30;;
23129;SDS011;11734;51.046;13.778;2023-06-10T02:03:43;8.87;;;7.97;;
23129;SDS011;11734;51.046;13.778;2023-06-10T02:06:10;8.70;;;7.37;;
23129;SDS011;11734;51.046;13.778;2023-06-10T02:08:38;8.13;;;7.03;;
23129;SDS011;11734;51.046;13.778;2023-06-10T02:11:05;7.83;;;6.90;;
23129;SDS011;11734;51.046;13.778;2023-06-10T02:13:34;9.27;;;7.43;;
23129;SDS011;11734;51.046;13.778;2023-06-10T02:16:01;8.83;;;7.93;;
23129;SDS011;11734;51.046;13.778;2023-06-10T02:18:29;7.80;;;7.10;;
23129;SDS011;11734;51.046;13.778;2023-06-10T02:20:56;8.37;;;7.53;;
23129;SDS011;11734;51.046;13.778;2023-06-10T02:23:25;8.23;;;7.43;;
23129;SDS011;11734;51.046;13.778;2023-06-10T02:25:52;8.67;;;7.63;;
23129;SDS011;11734;51.046;13.778;2023-06-10T02:28:19;8.67;;;7.80;;
23129;SDS011;11734;51.046;13.778;2023-06-10T02:30:47;7.83;;;7.03;;
23129;SDS011;11734;51.046;13.778;2023-06-10T02:33:15;8.50;;;7.43;;
23129;SDS011;11734;51.046;13.778;2023-06-10T02:35:43;8.67;;;7.77;;
23129;SDS011;11734;51.046;13.778;2023-06-10T02:38:11;8.20;;;7.37;;
23129;SDS011;11734;51.046;13.778;2023-06-10T02:40:38;8.77;;;7.87;;
23129;SDS011;11734;51.046;13.778;2023-06-10T02:43:06;10.17;;;8.20;;
23129;SDS011;11734;51.046;13.778;2023-06-10T02:45:34;8.93;;;8.03;;
23129;SDS011;11734;51.046;13.778;2023-06-10T02:48:03;8.70;;;7.80;;
23129;SDS011;11734;51.046;13.778;2023-06-10T02:50:32;10.83;;;8.30;;
23129;SDS011;11734;51.046;13.778;2023-06-10T02:53:16;10.50;;;8.20;;
23129;SDS011;11734;51.046;13.778;2023-06-10T02:55:49;8.27;;;7.47;;
23129;SDS011;11734;51.046;13.778;2023-06-10T02:58:18;8.93;;;7.83;;
23129;SDS011;11734;51.046;13.778;2023-06-10T03:00:45;11.23;;;8.50;;
23129;SDS011;11734;51.046;13.778;2023-06-10T03:03:14;9.37;;;7.73;;
23129;SDS011;11734;51.046;13.778;2023-06-10T03:05:54;8.70;;;7.80;;
23129;SDS011;11734;51.046;13.778;2023-06-10T03:08:23;9.03;;;8.13;;
23129;SDS011;11734;51.046;13.778;2023-06-10T03:10:52;8.93;;;8.03;;
23129;SDS011;11734;51.046;13.778;2023-06-10T03:13:20;9.87;;;8.97;;
23129;SDS011;11734;51.046;13.778;2023-06-10T03:15:48;10.03;;;7.97;;
23129;SDS011;11734;51.046;13.778;2023-06-10T03:18:18;9.17;;;7.60;;
23129;SDS011;11734;51.046;13.778;2023-06-10T03:20:47;9.23;;;8.07;;
23129;SDS011;11734;51.046;13.778;2023-06-10T03:23:15;8.73;;;7.87;;
23129;SDS011;11734;51.046;13.778;2023-06-10T03:25:42;10.50;;;7.77;;
23129;SDS011;11734;51.046;13.778;2023-06-10T03:28:14;8.27;;;7.47;;
23129;SDS011;11734;51.046;13.778;2023-06-10T03:30:42;9.40;;;8.43;;
23129;SDS011;11734;51.046;13.778;2023-06-10T03:33:10;8.70;;;7.80;;
23129;SDS011;11734;51.046;13.778;2023-06-10T03:35:38;8.90;;;7.80;;
23129;SDS011;11734;51.046;13.778;2023-06-10T03:38:06;8.83;;;7.93;;
23129;SDS011;11734;51.046;13.778;2023-06-10T03:40:33;9.00;;;8.10;;
23129;SDS011;11734;51.046;13.778;2023-06-10T03:43:02;8.60;;;7.73;;
23129;SDS011;11734;51.046;13.778;2023-06-10T03:45:30;8.20;;;7.40;;
23129;SDS011;11734;51.046;13.778;2023-06-10T03:47:59;9.10;;;7.30;;
23129;SDS011;11734;51.046;13.778;2023-06-10T03:50:34;7.93;;;7.13;;
23129;SDS011;11734;51.046;13.778;2023-06-10T03:53:03;8.60;;;7.77;;
23129;SDS011;11734;51.046;13.778;2023-06-10T03:55:31;8.73;;;7.80;;
23129;SDS011;11734;51.046;13.778;2023-06-10T03:57:59;9.17;;;7.23;;
23129;SDS011;11734;51.046;13.778;2023-06-10T04:00:26;8.77;;;7.87;;
23129;SDS011;11734;51.046;13.778;2023-06-10T04:02:55;8.53;;;7.57;;
23129;SDS011;11734;51.046;13.778;2023-06-10T04:05:33;8.67;;;7.77;;
23129;SDS011;11734;51.046;13.778;2023-06-10T04:08:00;7.60;;;6.70;;
23129;SDS011;11734;51.046;13.778;2023-06-10T04:10:28;8.87;;;7.97;;
23129;SDS011;11734;51.046;13.778;2023-06-10T04:12:55;8.00;;;7.17;;
23129;SDS011;11734;51.046;13.778;2023-06-10T04:15:25;7.77;;;7.03;;
23129;SDS011;11734;51.046;13.778;2023-06-10T04:17:53;8.90;;;7.77;;
23129;SDS011;11734;51.046;13.778;2023-06-10T04:20:25;7.87;;;7.07;;
23129;SDS011;11734;51.046;13.778;2023-06-10T04:22:52;8.67;;;7.83;;
23129;SDS011;11734;51.046;13.778;2023-06-10T04:25:20;8.73;;;7.37;;
23129;SDS011;11734;51.046;13.778;2023-06-10T04:27:49;8.80;;;8.00;;
23129;SDS011;11734;51.046;13.778;2023-06-10T04:30:16;7.73;;;6.93;;
23129;SDS011;11734;51.046;13.778;2023-06-10T04:32:44;8.10;;;7.30;;
23129;SDS011;11734;51.046;13.778;2023-06-10T04:35:15;8.57;;;7.47;;
23129;SDS011;11734;51.046;13.778;2023-06-10T04:37:44;8.77;;;6.93;;
23129;SDS011;11734;51.046;13.778;2023-06-10T04:40:12;8.17;;;7.00;;
23129;SDS011;11734;51.046;13.778;2023-06-10T04:42:40;8.23;;;7.40;;
23129;SDS011;11734;51.046;13.778;2023-06-10T04:45:07;7.40;;;6.70;;
23129;SDS011;11734;51.046;13.778;2023-06-10T04:47:35;7.60;;;6.80;;
23129;SDS011;11734;51.046;13.778;2023-06-10T04:50:04;7.50;;;6.73;;
23129;SDS011;11734;51.046;13.778;2023-06-10T04:52:32;7.53;;;6.70;;
23129;SDS011;11734;51.046;13.778;2023-06-10T04:55:00;8.27;;;7.37;;
23129;SDS011;11734;51.046;13.778;2023-06-10T04:57:27;7.63;;;6.83;;
23129;SDS011;11734;51.046;13.778;2023-06-10T04:59:54;7.60;;;6.77;;
23129;SDS011;11734;51.046;13.778;2023-06-10T05:02:22;8.23;;;6.90;;
23129;SDS011;11734;51.046;13.778;2023-06-10T05:04:49;7.73;;;6.83;;
23129;SDS011;11734;51.046;13.778;2023-06-10T05:07:17;8.37;;;7.57;;
23129;SDS011;11734;51.046;13.778;2023-06-10T05:09:44;7.67;;;6.83;;
23129;SDS011;11734;51.046;13.778;2023-06-10T05:12:12;7.27;;;6.57;;
23129;SDS011;11734;51.046;13.778;2023-06-10T05:14:39;7.70;;;6.77;;
23129;SDS011;11734;51.046;13.778;2023-06-10T05:17:07;7.30;;;6.60;;
23129;SDS011;11734;51.046;13.778;2023-06-10T05:19:34;7.63;;;6.93;;
23129;SDS011;11734;51.046;13.778;2023-06-10T05:22:04;7.13;;;6.43;;
23129;SDS011;11734;51.046;13.778;2023-06-10T05:24:32;6.73;;;6.03;;
23129;SDS011;11734;51.046;13.778;2023-06-10T05:26:59;7.00;;;5.77;;
23129;SDS011;11734;51.046;13.778;2023-06-10T05:29:27;6.67;;;5.97;;
23129;SDS011;11734;51.046;13.778;2023-06-10T05:31:54;6.80;;;5.93;;
23129;SDS011;11734;51.046;13.778;2023-06-10T05:34:24;6.83;;;6.17;;
23129;SDS011;11734;51.046;13.778;2023-06-10T05:36:51;6.37;;;5.77;;
23129;SDS011;11734;51.046;13.778;2023-06-10T05:39:18;6.57;;;5.83;;
23129;SDS011;11734;51.046;13.778;2023-06-10T05:41:46;8.33;;;6.77;;
23129;SDS011;11734;51.046;13.778;2023-06-10T05:44:14;7.03;;;5.47;;
23129;SDS011;11734;51.046;13.778;2023-06-10T05:46:41;6.30;;;5.70;;
23129;SDS011;11734;51.046;13.778;2023-06-10T05:49:09;6.37;;;5.87;;
23129;SDS011;11734;51.046;13.778;2023-06-10T05:51:36;6.27;;;5.57;;
23129;SDS011;11734;51.046;13.778;2023-06-10T05:54:04;7.30;;;6.53;;
23129;SDS011;11734;51.046;13.778;2023-06-10T05:56:31;6.70;;;5.83;;
23129;SDS011;11734;51.046;13.778;2023-06-10T05:58:58;7.60;;;5.70;;
23129;SDS011;11734;51.046;13.778;2023-06-10T06:01:26;6.23;;;5.63;;
23129;SDS011;11734;51.046;13.778;2023-06-10T06:03:53;6.17;;;5.67;;
23129;SDS011;11734;51.046;13.778;2023-06-10T06:06:20;5.70;;;5.10;;
23129;SDS011;11734;51.046;13.778;2023-06-10T06:08:48;5.70;;;5.20;;
23129;SDS011;11734;51.046;13.778;2023-06-10T06:11:15;6.53;;;5.63;;
23129;SDS011;11734;51.046;13.778;2023-06-10T06:13:42;6.33;;;5.73;;
23129;SDS011;11734;51.046;13.778;2023-06-10T06:16:13;6.27;;;5.67;;
23129;SDS011;11734;51.046;13.778;2023-06-10T06:18:41;5.17;;;4.70;;
23129;SDS011;11734;51.046;13.778;2023-06-10T06:21:09;4.90;;;4.40;;
23129;SDS011;11734;51.046;13.778;2023-06-10T06:23:36;5.73;;;5.20;;
23129;SDS011;11734;51.046;13.778;2023-06-10T06:26:03;4.70;;;4.30;;
23129;SDS011;11734;51.046;13.778;2023-06-10T06:28:34;5.30;;;4.87;;
23129;SDS011;11734;51.046;13.778;2023-06-10T06:31:01;5.43;;;4.60;;
23129;SDS011;11734;51.046;13.778;2023-06-10T06:33:31;5.73;;;5.23;;
23129;SDS011;11734;51.046;13.778;2023-06-10T06:35:59;5.47;;;4.87;;
23129;SDS011;11734;51.046;13.778;2023-06-10T06:38:26;5.17;;;4.77;;
23129;SDS011;11734;51.046;13.778;2023-06-10T06:40:54;5.70;;;5.13;;
23129;SDS011;11734;51.046;13.778;2023-06-10T06:43:21;5.53;;;5.03;;
23129;SDS011;11734;51.046;13.778;2023-06-10T06:46:01;5.30;;;4.80;;
23129;SDS011;11734;51.046;13.778;2023-06-10T06:48:29;5.27;;;4.77;;
23129;SDS011;11734;51.046;13.778;2023-06-10T06:50:56;5.27;;;4.67;;
23129;SDS011;11734;51.046;13.778;2023-06-10T06:53:24;5.67;;;4.60;;
23129;SDS011;11734;51.046;13.778;2023-06-10T06:55:54;5.73;;;5.00;;
23129;SDS011;11734;51.046;13.778;2023-06-10T06:58:22;5.90;;;5.30;;
23129;SDS011;11734;51.046;13.778;2023-06-10T07:00:49;6.53;;;5.80;;
23129;SDS011;11734;51.046;13.778;2023-06-10T07:03:17;6.00;;;5.40;;
23129;SDS011;11734;51.046;13.778;2023-06-10T07:05:44;5.83;;;5.23;;
23129;SDS011;11734;51.046;13.778;2023-06-10T07:08:11;6.03;;;5.40;;
23129;SDS011;11734;51.046;13.778;2023-06-10T07:10:40;5.73;;;5.23;;
23129;SDS011;11734;51.046;13.778;2023-06-10T07:13:07;7.60;;;5.13;;
23129;SDS011;11734;51.046;13.778;2023-06-10T07:15:35;5.63;;;5.10;;
23129;SDS011;11734;51.046;13.778;2023-06-10T07:18:02;5.83;;;5.30;;
23129;SDS011;11734;51.046;13.778;2023-06-10T07:20:30;6.27;;;5.67;;
23129;SDS011;11734;51.046;13.778;2023-06-10T07:22:57;6.30;;;5.70;;
23129;SDS011;11734;51.046;13.778;2023-06-10T07:25:24;6.40;;;5.47;;
23129;SDS011;11734;51.046;13.778;2023-06-10T07:27:52;6.43;;;5.40;;
23129;SDS011;11734;51.046;13.778;2023-06-10T07:30:19;7.57;;;5.80;;
23129;SDS011;11734;51.046;13.778;2023-06-10T07:32:46;6.33;;;5.60;;
23129;SDS011;11734;51.046;13.778;2023-06-10T07:35:14;6.00;;;5.50;;
23129;SDS011;11734;51.046;13.778;2023-06-10T07:37:42;6.40;;;5.80;;
23129;SDS011;11734;51.046;13.778;2023-06-10T07:40:09;6.67;;;6.00;;
23129;SDS011;11734;51.046;13.778;2023-06-10T07:42:37;6.80;;;6.10;;
23129;SDS011;11734;51.046;13.778;2023-06-10T07:45:05;5.60;;;5.10;;
23129;SDS011;11734;51.046;13.778;2023-06-10T07:47:33;5.93;;;5.37;;
23129;SDS011;11734;51.046;13.778;2023-06-10T07:50:01;5.17;;;4.67;;
23129;SDS011;11734;51.046;13.778;2023-06-10T07:52:28;6.47;;;5.87;;
23129;SDS011;11734;51.046;13.778;2023-06-10T07:54:55;5.33;;;4.90;;
23129;SDS011;11734;51.046;13.778;2023-06-10T07:57:23;8.37;;;6.70;;
23129;SDS011;11734;51.046;13.778;2023-06-10T07:59:50;7.73;;;5.70;;
23129;SDS011;11734;51.046;13.778;2023-06-10T08:02:18;6.30;;;5.70;;
23129;SDS011;11734;51.046;13.778;2023-06-10T08:04:47;6.60;;;6.00;;
23129;SDS011;11734;51.046;13.778;2023-06-10T08:07:14;5.70;;;5.20;;
23129;SDS011;11734;51.046;13.778;2023-06-10T08:09:42;5.90;;;5.30;;
23129;SDS011;11734;51.046;13.778;2023-06-10T08:12:09;6.17;;;5.27;;
23129;SDS011;11734;51.046;13.778;2023-06-10T08:14:40;5.53;;;5.03;;
23129;SDS011;11734;51.046;13.778;2023-06-10T08:17:07;6.97;;;5.33;;
23129;SDS011;11734;51.046;13.778;2023-06-10T08:19:35;6.00;;;5.40;;
23129;SDS011;11734;51.046;13.778;2023-06-10T08:22:02;6.30;;;5.70;;
23129;SDS011;11734;51.046;13.778;2023-06-10T08:24:29;5.60;;;5.10;;
23129;SDS011;11734;51.046;13.778;2023-06-10T08:26:57;5.73;;;5.20;;
23129;SDS011;11734;51.046;13.778;2023-06-10T08:29:25;6.13;;;5.53;;
23129;SDS011;11734;51.046;13.778;2023-06-10T08:31:52;6.27;;;5.50;;
23129;SDS011;11734;51.046;13.778;2023-06-10T08:34:19;5.73;;;5.20;;
23129;SDS011;11734;51.046;13.778;2023-06-10T08:36:47;5.57;;;5.07;;
23129;SDS011;11734;51.046;13.778;2023-06-10T08:39:19;6.07;;;5.47;;
23129;SDS011;11734;51.046;13.778;2023-06-10T08:44:38;6.10;;;5.50;;
23129;SDS011;11734;51.046;13.778;2023-06-10T08:47:16;8.00;;;6.90;;
23129;SDS011;11734;51.046;13.778;2023-06-10T08:49:44;6.87;;;6.27;;
23129;SDS011;11734;51.046;13.778;2023-06-10T08:52:14;6.20;;;5.60;;
23129;SDS011;11734;51.046;13.778;2023-06-10T08:54:43;8.10;;;7.20;;
23129;SDS011;11734;51.046;13.778;2023-06-10T08:57:13;5.73;;;5.23;;
23129;SDS011;11734;51.046;13.778;2023-06-10T08:59:41;6.20;;;5.70;;
23129;SDS011;11734;51.046;13.778;2023-06-10T09:02:08;6.00;;;5.50;;
23129;SDS011;11734;51.046;13.778;2023-06-10T09:04:37;5.77;;;5.27;;
23129;SDS011;11734;51.046;13.778;2023-06-10T09:07:05;6.07;;;5.47;;
23129;SDS011;11734;51.046;13.778;2023-06-10T09:09:33;6.33;;;5.73;;
23129;SDS011;11734;51.046;13.778;2023-06-10T09:12:02;7.03;;;5.90;;
23129;SDS011;11734;51.046;13.778;2023-06-10T09:14:30;6.07;;;5.57;;
23129;SDS011;11734;51.046;13.778;2023-06-10T09:16:57;5.40;;;4.90;;
23129;SDS011;11734;51.046;13.778;2023-06-10T09:19:25;6.47;;;5.57;;
23129;SDS011;11734;51.046;13.778;2023-06-10T09:21:52;5.97;;;5.37;;
23129;SDS011;11734;51.046;13.778;2023-06-10T09:24:23;6.07;;;5.47;;
23129;SDS011;11734;51.046;13.778;2023-06-10T09:27:03;5.60;;;5.10;;
23129;SDS011;11734;51.046;13.778;2023-06-10T09:29:45;5.77;;;5.27;;
23129;SDS011;11734;51.046;13.778;2023-06-10T09:32:13;5.80;;;5.30;;
23129;SDS011;11734;51.046;13.778;2023-06-10T09:34:41;5.73;;;5.23;;
23129;SDS011;11734;51.046;13.778;2023-06-10T09:37:08;6.17;;;5.57;;
23129;SDS011;11734;51.046;13.778;2023-06-10T09:39:38;5.20;;;4.70;;
23129;SDS011;11734;51.046;13.778;2023-06-10T09:42:15;5.03;;;4.60;;
23129;SDS011;11734;51.046;13.778;2023-06-10T09:44:51;5.90;;;5.30;;
23129;SDS011;11734;51.046;13.778;2023-06-10T09:47:19;6.90;;;6.30;;
23129;SDS011;11734;51.046;13.778;2023-06-10T09:49:50;5.17;;;4.67;;
23129;SDS011;11734;51.046;13.778;2023-06-10T09:52:22;5.93;;;5.33;;
23129;SDS011;11734;51.046;13.778;2023-06-10T09:54:50;5.60;;;5.07;;
23129;SDS011;11734;51.046;13.778;2023-06-10T09:57:21;5.60;;;5.10;;
23129;SDS011;11734;51.046;13.778;2023-06-10T09:59:52;4.97;;;4.50;;
23129;SDS011;11734;51.046;13.778;2023-06-10T10:02:22;5.53;;;4.83;;
23129;SDS011;11734;51.046;13.778;2023-06-10T10:04:50;5.73;;;5.23;;
23129;SDS011;11734;51.046;13.778;2023-06-10T10:07:17;5.63;;;5.13;;
23129;SDS011;11734;51.046;13.778;2023-06-10T10:10:02;6.17;;;5.30;;
23129;SDS011;11734;51.046;13.778;2023-06-10T10:12:30;6.23;;;5.63;;
23129;SDS011;11734;51.046;13.778;2023-06-10T10:14:57;5.97;;;5.37;;
23129;SDS011;11734;51.046;13.778;2023-06-10T10:17:25;5.73;;;5.23;;
23129;SDS011;11734;51.046;13.778;2023-06-10T10:19:53;5.40;;;4.90;;
23129;SDS011;11734;51.046;13.778;2023-06-10T10:22:25;6.47;;;5.63;;
23129;SDS011;11734;51.046;13.778;2023-06-10T10:24:53;5.70;;;5.20;;
23129;SDS011;11734;51.046;13.778;2023-06-10T10:27:44;5.63;;;5.13;;
23129;SDS011;11734;51.046;13.778;2023-06-10T10:30:11;5.93;;;4.67;;
23129;SDS011;11734;51.046;13.778;2023-06-10T10:32:40;4.87;;;4.43;;
23129;SDS011;11734;51.046;13.778;2023-06-10T10:35:14;5.60;;;5.10;;
23129;SDS011;11734;51.046;13.778;2023-06-10T10:37:44;5.60;;;5.13;;
23129;SDS011;11734;51.046;13.778;2023-06-10T10:40:12;5.77;;;5.27;;
23129;SDS011;11734;51.046;13.778;2023-06-10T10:42:41;5.33;;;4.83;;
23129;SDS011;11734;51.046;13.778;2023-06-10T10:45:09;5.50;;;5.10;;
23129;SDS011;11734;51.046;13.778;2023-06-10T10:47:37;9.27;;;5.60;;
23129;SDS011;11734;51.046;13.778;2023-06-10T10:50:15;7.20;;;5.70;;
23129;SDS011;11734;51.046;13.778;2023-06-10T10:52:57;5.13;;;4.63;;
23129;SDS011;11734;51.046;13.778;2023-06-10T10:55:27;5.60;;;5.10;;
23129;SDS011;11734;51.046;13.778;2023-06-10T11:00:31;5.37;;;4.90;;
23129;SDS011;11734;51.046;13.778;2023-06-10T11:03:08;5.50;;;5.00;;
23129;SDS011;11734;51.046;13.778;2023-06-10T11:05:44;5.57;;;4.67;;
23129;SDS011;11734;51.046;13.778;2023-06-10T11:08:15;4.80;;;4.40;;
23129;SDS011;11734;51.046;13.778;2023-06-10T11:10:52;5.70;;;4.40;;
23129;SDS011;11734;51.046;13.778;2023-06-10T11:13:21;5.17;;;4.73;;
23129;SDS011;11734;51.046;13.778;2023-06-10T11:15:49;5.17;;;4.70;;
23129;SDS011;11734;51.046;13.778;2023-06-10T11:18:28;6.57;;;5.23;;
23129;SDS011;11734;51.046;13.778;2023-06-10T11:21:00;5.23;;;4.73;;
23129;SDS011;11734;51.046;13.778;2023-06-10T11:33:51;5.80;;;5.30;;
23129;SDS011;11734;51.046;13.778;2023-06-10T11:36:19;5.83;;;5.33;;
23129;SDS011;11734;51.046;13.778;2023-06-10T11:38:46;5.50;;;5.10;;
23129;SDS011;11734;51.046;13.778;2023-06-10T11:41:15;5.53;;;5.03;;
23129;SDS011;11734;51.046;13.778;2023-06-10T11:43:44;5.60;;;5.20;;
23129;SDS011;11734;51.046;13.778;2023-06-10T11:46:13;5.53;;;5.03;;
23129;SDS011;11734;51.046;13.778;2023-06-10T11:48:54;6.27;;;5.33;;
23129;SDS011;11734;51.046;13.778;2023-06-10T11:51:23;6.03;;;5.53;;
23129;SDS011;11734;51.046;13.778;2023-06-10T11:53:52;5.57;;;5.07;;
23129;SDS011;11734;51.046;13.778;2023-06-10T11:56:20;5.50;;;5.00;;
23129;SDS011;11734;51.046;13.778;2023-06-10T11:58:54;5.80;;;5.30;;
23129;SDS011;11734;51.046;13.778;2023-06-10T12:01:24;5.23;;;4.80;;
23129;SDS011;11734;51.046;13.778;2023-06-10T12:04:05;5.43;;;4.93;;
23129;SDS011;11734;51.046;13.778;2023-06-10T12:06:39;4.80;;;4.40;;
23129;SDS011;11734;51.046;13.778;2023-06-10T12:09:12;5.00;;;4.60;;
23129;SDS011;11734;51.046;13.778;2023-06-10T12:11:57;4.47;;;4.17;;
23129;SDS011;11734;51.046;13.778;2023-06-10T12:17:15;5.27;;;4.77;;
23129;SDS011;11734;51.046;13.778;2023-06-10T12:19:42;5.93;;;5.33;;
23129;SDS011;11734;51.046;13.778;2023-06-10T12:22:10;5.40;;;5.00;;
23129;SDS011;11734;51.046;13.778;2023-06-10T12:24:44;5.77;;;5.27;;
23129;SDS011;11734;51.046;13.778;2023-06-10T12:27:12;6.10;;;4.93;;
23129;SDS011;11734;51.046;13.778;2023-06-10T12:29:39;5.70;;;5.20;;
23129;SDS011;11734;51.046;13.778;2023-06-10T12:32:20;5.17;;;4.70;;
23129;SDS011;11734;51.046;13.778;2023-06-10T12:35:03;4.93;;;4.53;;
23129;SDS011;11734;51.046;13.778;2023-06-10T12:37:31;5.20;;;4.70;;
23129;SDS011;11734;51.046;13.778;2023-06-10T12:40:03;5.07;;;4.67;;
23129;SDS011;11734;51.046;13.778;2023-06-10T12:42:32;5.13;;;4.63;;
23129;SDS011;11734;51.046;13.778;2023-06-10T12:45:01;5.70;;;4.60;;
23129;SDS011;11734;51.046;13.778;2023-06-10T12:47:30;5.20;;;4.73;;
23129;SDS011;11734;51.046;13.778;2023-06-10T12:50:01;5.27;;;4.83;;
23129;SDS011;11734;51.046;13.778;2023-06-10T12:52:30;5.20;;;4.70;;
23129;SDS011;11734;51.046;13.778;2023-06-10T12:54:59;5.27;;;4.87;;
23129;SDS011;11734;51.046;13.778;2023-06-10T12:57:27;5.50;;;5.00;;
23129;SDS011;11734;51.046;13.778;2023-06-10T12:59:54;5.43;;;4.93;;
23129;SDS011;11734;51.046;13.778;2023-06-10T13:02:27;5.23;;;4.83;;
23129;SDS011;11734;51.046;13.778;2023-06-10T13:04:54;6.20;;;5.60;;
23129;SDS011;11734;51.046;13.778;2023-06-10T13:07:22;5.60;;;5.10;;
23129;SDS011;11734;51.046;13.778;2023-06-10T13:09:51;5.50;;;5.00;;
23129;SDS011;11734;51.046;13.778;2023-06-10T13:12:18;5.63;;;5.13;;
23129;SDS011;11734;51.046;13.778;2023-06-10T13:15:07;4.93;;;4.53;;
23129;SDS011;11734;51.046;13.778;2023-06-10T13:17:35;5.30;;;4.90;;
23129;SDS011;11734;51.046;13.778;2023-06-10T13:20:05;4.93;;;4.53;;
23129;SDS011;11734;51.046;13.778;2023-06-10T13:22:33;4.97;;;4.57;;
23129;SDS011;11734;51.046;13.778;2023-06-10T13:25:03;5.40;;;5.00;;
23129;SDS011;11734;51.046;13.778;2023-06-10T13:27:31;4.90;;;4.50;;
23129;SDS011;11734;51.046;13.778;2023-06-10T13:29:59;5.30;;;4.77;;
23129;SDS011;11734;51.046;13.778;2023-06-10T13:32:26;5.00;;;4.43;;
23129;SDS011;11734;51.046;13.778;2023-06-10T13:34:53;4.67;;;4.27;;
23129;SDS011;11734;51.046;13.778;2023-06-10T13:37:21;4.43;;;4.07;;
23129;SDS011;11734;51.046;13.778;2023-06-10T13:39:48;4.97;;;4.57;;
23129;SDS011;11734;51.046;13.778;2023-06-10T13:42:17;4.57;;;4.17;;
23129;SDS011;11734;51.046;13.778;2023-06-10T13:44:44;4.03;;;3.73;;
23129;SDS011;11734;51.046;13.778;2023-06-10T13:47:13;5.03;;;4.03;;
23129;SDS011;11734;51.046;13.778;2023-06-10T13:49:41;4.30;;;3.90;;
23129;SDS011;11734;51.046;13.778;2023-06-10T13:52:08;4.50;;;4.10;;
23129;SDS011;11734;51.046;13.778;2023-06-10T13:54:36;4.43;;;3.70;;
23129;SDS011;11734;51.046;13.778;2023-06-10T13:57:03;4.27;;;3.87;;
23129;SDS011;11734;51.046;13.778;2023-06-10T13:59:31;4.13;;;3.83;;
23129;SDS011;11734;51.046;13.778;2023-06-10T14:01:58;5.17;;;3.50;;
23129;SDS011;11734;51.046;13.778;2023-06-10T14:04:27;3.70;;;3.37;;
23129;SDS011;11734;51.046;13.778;2023-06-10T14:06:54;3.90;;;3.57;;
23129;SDS011;11734;51.046;13.778;2023-06-10T14:09:21;4.33;;;3.93;;
23129;SDS011;11734;51.046;13.778;2023-06-10T14:11:49;3.70;;;3.40;;
23129;SDS011;11734;51.046;13.778;2023-06-10T14:14:16;4.03;;;3.73;;
23129;SDS011;11734;51.046;13.778;2023-06-10T14:16:43;4.27;;;3.87;;
23129;SDS011;11734;51.046;13.778;2023-06-10T14:19:11;5.53;;;4.07;;
23129;SDS011;11734;51.046;13.778;2023-06-10T14:21:38;4.53;;;4.13;;
23129;SDS011;11734;51.046;13.778;2023-06-10T14:24:06;4.30;;;3.90;;
23129;SDS011;11734;51.046;13.778;2023-06-10T14:26:33;3.70;;;3.40;;
23129;SDS011;11734;51.046;13.778;2023-06-10T14:29:01;4.33;;;4.03;;
23129;SDS011;11734;51.046;13.778;2023-06-10T14:31:29;4.47;;;4.07;;
23129;SDS011;11734;51.046;13.778;2023-06-10T14:33:56;4.33;;;4.03;;
23129;SDS011;11734;51.046;13.778;2023-06-10T14:36:23;4.57;;;4.17;;
23129;SDS011;11734;51.046;13.778;2023-06-10T14:38:51;4.37;;;3.97;;
23129;SDS011;11734;51.046;13.778;2023-06-10T14:41:18;4.33;;;3.97;;
23129;SDS011;11734;51.046;13.778;2023-06-10T14:43:46;5.00;;;4.50;;
23129;SDS011;11734;51.046;13.778;2023-06-10T14:46:13;4.90;;;4.47;;
23129;SDS011;11734;51.046;13.778;2023-06-10T14:48:40;4.47;;;4.07;;
23129;SDS011;11734;51.046;13.778;2023-06-10T14:51:08;4.30;;;3.90;;
23129;SDS011;11734;51.046;13.778;2023-06-10T14:53:36;4.60;;;4.20;;
23129;SDS011;11734;51.046;13.778;2023-06-10T14:56:04;4.57;;;4.17;;
23129;SDS011;11734;51.046;13.778;2023-06-10T14:58:31;7.77;;;6.67;;
23129;SDS011;11734;51.046;13.778;2023-06-10T15:00:58;5.50;;;5.00;;
23129;SDS011;11734;51.046;13.778;2023-06-10T15:03:26;5.90;;;4.37;;
23129;SDS011;11734;51.046;13.778;2023-06-10T15:05:53;5.47;;;4.50;;
23129;SDS011;11734;51.046;13.778;2023-06-10T15:08:21;4.67;;;4.27;;
23129;SDS011;11734;51.046;13.778;2023-06-10T15:10:48;5.10;;;4.70;;